Time,TemperatureF,DewpointF,PressureIn,WindDirection,WindDirectionDegrees,WindSpeedMPH,WindSpeedGustMPH,Humidity,HourlyPrecipIn,Conditions,Clouds,dailyrainin,SoftwareType,DateUTC
2013-06-21 00:13:00,56.7,52.0,30.17,SE,126,0.0,2.0,83,0.00,,,0.00,weatherlink.com 1.10,2013-06-21 04:13:00,
2013-06-21 00:28:00,56.1,51.0,30.17,SE,126,0.0,2.0,84,0.00,,,0.00,weatherlink.com 1.10,2013-06-21 04:28:00,
2013-06-21 00:43:00,55.0,51.0,30.17,SE,126,0.0,1.0,86,0.00,,,0.00,weatherlink.com 1.10,2013-06-21 04:43:00,
2013-06-21 00:58:00,54.4,51.0,30.16,SE,126,0.0,1.0,88,0.00,,,0.00,weatherlink.com 1.10,2013-06-21 04:58:00,
2013-06-21 01:13:00,54.1,50.0,30.17,SE,126,1.0,2.0,86,0.00,,,0.00,weatherlink.com 1.10,2013-06-21 05:13:00,
2013-06-21 01:28:00,55.0,51.0,30.18,SE,132,2.0,3.0,87,0.00,,,0.00,weatherlink.com 1.10,2013-06-21 05:28:00,
2013-06-21 01:43:00,55.1,51.0,30.17,SE,132,1.0,3.0,86,0.00,,,0.00,weatherlink.com 1.10,2013-06-21 05:43:00,
2013-06-21 01:58:00,54.5,51.0,30.17,SE,134,1.0,1.0,88,0.00,,,0.00,weatherlink.com 1.10,2013-06-21 05:58:00,
2013-06-21 02:13:00,54.8,51.0,30.16,SE,135,0.0,5.0,88,0.00,,,0.00,weatherlink.com 1.10,2013-06-21 06:13:00,
2013-06-21 02:29:00,54.3,52.0,30.17,SE,135,0.0,1.0,90,0.00,,,0.00,weatherlink.com 1.10,2013-06-21 06:29:00,
2013-06-21 02:44:00,54.0,52.0,30.16,SE,135,0.0,2.0,92,0.00,,,0.00,weatherlink.com 1.10,2013-06-21 06:44:00,
2013-06-21 02:59:00,55.4,53.0,30.16,NE,34,0.0,5.0,92,0.00,,,0.00,weatherlink.com 1.10,2013-06-21 06:59:00,
2013-06-21 03:14:00,56.1,53.0,30.16,WNW,284,1.0,4.0,90,0.00,,,0.00,weatherlink.com 1.10,2013-06-21 07:14:00,
2013-06-21 03:29:00,56.9,53.0,30.16,North,351,3.0,5.0,88,0.00,,,0.00,weatherlink.com 1.10,2013-06-21 07:29:00,
2013-06-21 03:44:00,57.3,54.0,30.16,NE,42,2.0,5.0,88,0.00,,,0.00,weatherlink.com 1.10,2013-06-21 07:44:00,
2013-06-21 03:59:00,57.8,54.0,30.15,NE,41,2.0,4.0,87,0.00,,,0.00,weatherlink.com 1.10,2013-06-21 07:59:00,
2013-06-21 04:14:00,57.7,55.0,30.15,NNW,329,6.0,6.0,90,0.00,,,0.00,weatherlink.com 1.10,2013-06-21 08:14:00,
2013-06-21 04:29:00,57.2,54.0,30.16,NNE,12,3.0,4.0,88,0.00,,,0.00,weatherlink.com 1.10,2013-06-21 08:29:00,
2013-06-21 04:44:00,56.3,54.0,30.16,NNE,19,1.0,3.0,90,0.00,,,0.00,weatherlink.com 1.10,2013-06-21 08:44:00,
2013-06-21 04:59:00,56.5,54.0,30.17,NNE,21,2.0,4.0,91,0.00,,,0.00,weatherlink.com 1.10,2013-06-21 08:59:00,
2013-06-21 05:14:00,56.0,54.0,30.17,NNE,22,2.0,3.0,92,0.00,,,0.00,weatherlink.com 1.10,2013-06-21 09:14:00,
2013-06-21 05:29:00,55.9,54.0,30.17,NNE,21,1.0,4.0,93,0.00,,,0.00,weatherlink.com 1.10,2013-06-21 09:29:00,
2013-06-21 05:44:00,56.1,54.0,30.17,NE,49,2.0,4.0,94,0.00,,,0.00,weatherlink.com 1.10,2013-06-21 09:44:00,
2013-06-21 05:59:00,56.8,55.0,30.17,NE,43,2.0,3.0,93,0.00,,,0.00,weatherlink.com 1.10,2013-06-21 09:59:00,
2013-06-21 06:14:00,56.9,55.0,30.18,NE,44,1.0,3.0,93,0.00,,,0.00,weatherlink.com 1.10,2013-06-21 10:14:00,
2013-06-21 06:29:00,57.5,56.0,30.18,NE,46,1.0,4.0,94,0.00,,,0.00,weatherlink.com 1.10,2013-06-21 10:29:00,
2013-06-21 06:44:00,57.8,56.0,30.18,NE,50,3.0,4.0,93,0.00,,,0.00,weatherlink.com 1.10,2013-06-21 10:44:00,
2013-06-21 06:59:00,58.5,56.0,30.18,NE,44,2.0,5.0,91,0.00,,,0.00,weatherlink.com 1.10,2013-06-21 10:59:00,
2013-06-21 07:14:00,58.9,56.0,30.18,NE,49,2.0,3.0,91,0.00,,,0.00,weatherlink.com 1.10,2013-06-21 11:14:00,
2013-06-21 07:29:00,59.4,56.0,30.18,NNE,30,2.0,5.0,89,0.00,,,0.00,weatherlink.com 1.10,2013-06-21 11:29:00,
2013-06-21 07:44:00,60.0,57.0,30.18,NNW,348,4.0,8.0,89,0.00,,,0.00,weatherlink.com 1.10,2013-06-21 11:44:00,
2013-06-21 07:59:00,60.9,57.0,30.18,NE,45,2.0,5.0,87,0.00,,,0.00,weatherlink.com 1.10,2013-06-21 11:59:00,
2013-06-21 08:14:00,62.4,58.0,30.18,NE,43,3.0,6.0,85,0.00,,,0.00,weatherlink.com 1.10,2013-06-21 12:14:00,
2013-06-21 08:29:00,63.2,58.0,30.18,North,360,2.0,8.0,84,0.00,,,0.00,weatherlink.com 1.10,2013-06-21 12:29:00,
2013-06-21 08:44:00,64.3,59.0,30.18,NNW,333,3.0,7.0,83,0.00,,,0.00,weatherlink.com 1.10,2013-06-21 12:44:00,
2013-06-21 08:59:00,65.2,59.0,30.17,ENE,57,1.0,8.0,81,0.00,,,0.00,weatherlink.com 1.10,2013-06-21 12:59:00,
2013-06-21 09:14:00,66.6,60.0,30.17,North,9,1.0,6.0,79,0.00,,,0.00,weatherlink.com 1.10,2013-06-21 13:14:00,
2013-06-21 09:29:00,67.3,60.0,30.17,ENE,68,3.0,8.0,76,0.00,,,0.00,weatherlink.com 1.10,2013-06-21 13:29:00,
2013-06-21 09:44:00,67.5,59.0,30.17,NNE,12,2.0,9.0,73,0.00,,,0.00,weatherlink.com 1.10,2013-06-21 13:44:00,
2013-06-21 09:59:00,68.0,59.0,30.17,East,80,1.0,9.0,73,0.00,,,0.00,weatherlink.com 1.10,2013-06-21 13:59:00,
2013-06-21 10:15:00,69.0,58.0,30.17,North,355,3.0,13.0,69,0.00,,,0.00,weatherlink.com 1.10,2013-06-21 14:15:00,
2013-06-21 10:30:00,69.0,60.0,30.17,South,172,4.0,8.0,74,0.00,,,0.00,weatherlink.com 1.10,2013-06-21 14:30:00,
2013-06-21 10:45:00,68.5,59.0,30.17,North,5,1.0,8.0,72,0.00,,,0.00,weatherlink.com 1.10,2013-06-21 14:45:00,
2013-06-21 11:00:00,68.5,58.0,30.18,NNW,331,2.0,8.0,69,0.00,,,0.00,weatherlink.com 1.10,2013-06-21 15:00:00,
2013-06-21 11:15:00,69.6,58.0,30.17,NNW,328,1.0,7.0,66,0.00,,,0.00,weatherlink.com 1.10,2013-06-21 15:15:00,
2013-06-21 11:30:00,70.6,58.0,30.17,North,5,4.0,10.0,64,0.00,,,0.00,weatherlink.com 1.10,2013-06-21 15:30:00,
2013-06-21 11:45:00,70.6,60.0,30.16,SW,222,3.0,6.0,70,0.00,,,0.00,weatherlink.com 1.10,2013-06-21 15:45:00,
2013-06-21 12:00:00,69.5,59.0,30.16,North,5,4.0,4.0,69,0.00,,,0.00,weatherlink.com 1.10,2013-06-21 16:00:00,
2013-06-21 12:15:00,70.2,56.0,30.16,SSW,209,4.0,9.0,61,0.00,,,0.00,weatherlink.com 1.10,2013-06-21 16:15:00,
2013-06-21 12:30:00,72.2,56.0,30.16,NNE,17,1.0,7.0,58,0.00,,,0.00,weatherlink.com 1.10,2013-06-21 16:30:00,
2013-06-21 12:45:00,72.9,54.0,30.16,SW,223,4.0,7.0,51,0.00,,,0.00,weatherlink.com 1.10,2013-06-21 16:45:00,
2013-06-21 13:00:00,72.2,55.0,30.16,NE,38,3.0,8.0,55,0.00,,,0.00,weatherlink.com 1.10,2013-06-21 17:00:00,
2013-06-21 13:15:00,73.1,56.0,30.16,South,185,5.0,8.0,55,0.00,,,0.00,weatherlink.com 1.10,2013-06-21 17:15:00,
2013-06-21 13:30:00,73.8,58.0,30.15,NNW,329,2.0,7.0,58,0.00,,,0.00,weatherlink.com 1.10,2013-06-21 17:30:00,
2013-06-21 13:45:00,71.9,62.0,30.15,SSE,168,3.0,8.0,70,0.00,,,0.00,weatherlink.com 1.10,2013-06-21 17:45:00,
2013-06-21 14:15:00,68.4,61.0,30.15,SE,142,0.0,7.0,78,0.00,,,0.00,weatherlink.com 1.10,2013-06-21 18:15:00,
2013-06-21 14:30:00,69.6,63.0,30.14,NNE,24,2.0,7.0,79,0.00,,,0.00,weatherlink.com 1.10,2013-06-21 18:30:00,
2013-06-21 14:45:00,70.1,63.0,30.15,SSW,194,4.0,7.0,78,0.00,,,0.00,weatherlink.com 1.10,2013-06-21 18:45:00,
2013-06-21 15:00:00,69.6,63.0,30.14,SSW,197,2.0,5.0,79,0.00,,,0.00,weatherlink.com 1.10,2013-06-21 19:00:00,
2013-06-21 15:15:00,70.0,64.0,30.15,SSE,148,4.0,5.0,82,0.00,,,0.00,weatherlink.com 1.10,2013-06-21 19:15:00,
2013-06-21 15:30:00,71.2,63.0,30.14,South,172,2.0,5.0,75,0.00,,,0.00,weatherlink.com 1.10,2013-06-21 19:30:00,
2013-06-21 16:00:00,70.6,63.0,30.14,SSW,199,0.0,5.0,76,0.00,,,0.00,weatherlink.com 1.10,2013-06-21 20:00:00,
2013-06-21 16:15:00,69.6,63.0,30.13,SSW,198,1.0,4.0,80,0.00,,,0.00,weatherlink.com 1.10,2013-06-21 20:15:00,
2013-06-21 16:30:00,69.3,63.0,30.14,SSW,205,1.0,3.0,79,0.00,,,0.00,weatherlink.com 1.10,2013-06-21 20:30:00,
2013-06-21 17:00:00,70.8,63.0,30.13,SSW,207,3.0,6.0,76,0.00,,,0.00,weatherlink.com 1.10,2013-06-21 21:00:00,
2013-06-21 17:15:00,70.6,64.0,30.13,South,184,2.0,3.0,80,0.00,,,0.00,weatherlink.com 1.10,2013-06-21 21:15:00,
2013-06-21 17:30:00,70.0,63.0,30.13,SW,218,2.0,6.0,78,0.00,,,0.00,weatherlink.com 1.10,2013-06-21 21:30:00,
2013-06-21 18:00:00,69.4,63.0,30.13,SW,219,0.0,0.0,81,0.00,,,0.00,weatherlink.com 1.10,2013-06-21 22:00:00,
2013-06-21 18:15:00,69.2,63.0,30.13,SW,219,0.0,2.0,80,0.00,,,0.00,weatherlink.com 1.10,2013-06-21 22:15:00,
2013-06-21 18:30:00,69.7,63.0,30.13,SW,219,1.0,2.0,79,0.00,,,0.00,weatherlink.com 1.10,2013-06-21 22:30:00,
2013-06-21 18:45:00,69.6,64.0,30.13,SW,219,0.0,1.0,81,0.00,,,0.00,weatherlink.com 1.10,2013-06-21 22:45:00,
2013-06-21 19:00:00,68.9,63.0,30.13,SW,219,1.0,3.0,82,0.00,,,0.00,weatherlink.com 1.10,2013-06-21 23:00:00,
2013-06-21 19:15:00,68.4,63.0,30.13,SW,220,0.0,0.0,84,0.00,,,0.00,weatherlink.com 1.10,2013-06-21 23:15:00,
2013-06-21 19:30:00,68.3,64.0,30.13,SW,220,0.0,0.0,85,0.00,,,0.00,weatherlink.com 1.10,2013-06-21 23:30:00,
2013-06-21 19:45:00,67.3,63.0,30.13,SW,220,0.0,0.0,85,0.00,,,0.00,weatherlink.com 1.10,2013-06-21 23:45:00,
2013-06-21 20:00:00,66.4,63.0,30.13,SW,219,0.0,0.0,87,0.00,,,0.00,weatherlink.com 1.10,2013-06-22 00:00:00,
2013-06-21 20:15:00,65.4,62.0,30.13,SW,219,0.0,0.0,88,0.00,,,0.00,weatherlink.com 1.10,2013-06-22 00:15:00,
2013-06-21 20:30:00,64.0,61.0,30.13,SW,219,0.0,0.0,90,0.00,,,0.00,weatherlink.com 1.10,2013-06-22 00:30:00,
2013-06-21 20:45:00,62.7,60.0,30.13,SW,219,0.0,0.0,91,0.00,,,0.00,weatherlink.com 1.10,2013-06-22 00:45:00,
2013-06-21 21:00:00,61.9,60.0,30.13,SW,219,0.0,0.0,93,0.00,,,0.00,weatherlink.com 1.10,2013-06-22 01:00:00,
2013-06-21 21:15:00,61.2,60.0,30.14,SW,219,0.0,0.0,94,0.00,,,0.00,weatherlink.com 1.10,2013-06-22 01:15:00,
2013-06-21 21:30:00,60.6,59.0,30.14,SW,219,0.0,0.0,95,0.00,,,0.00,weatherlink.com 1.10,2013-06-22 01:30:00,
2013-06-21 21:45:00,60.3,59.0,30.14,SW,219,0.0,0.0,95,0.00,,,0.00,weatherlink.com 1.10,2013-06-22 01:45:00,
2013-06-21 22:00:00,59.9,59.0,30.14,SW,219,0.0,0.0,96,0.00,,,0.00,weatherlink.com 1.10,2013-06-22 02:00:00,
2013-06-21 22:15:00,59.6,59.0,30.14,SW,219,0.0,0.0,96,0.00,,,0.00,weatherlink.com 1.10,2013-06-22 02:15:00,
2013-06-21 22:30:00,59.5,59.0,30.14,SW,219,0.0,0.0,97,0.00,,,0.00,weatherlink.com 1.10,2013-06-22 02:30:00,
2013-06-21 22:45:00,59.5,59.0,30.14,SW,219,0.0,0.0,97,0.00,,,0.00,weatherlink.com 1.10,2013-06-22 02:45:00,
2013-06-21 23:00:00,59.2,58.0,30.13,SW,219,0.0,0.0,97,0.00,,,0.00,weatherlink.com 1.10,2013-06-22 03:00:00,
2013-06-21 23:15:00,59.2,58.0,30.14,SW,219,0.0,1.0,97,0.00,,,0.00,weatherlink.com 1.10,2013-06-22 03:15:00,
2013-06-21 23:30:00,59.0,58.0,30.14,SW,219,0.0,0.0,97,0.00,,,0.00,weatherlink.com 1.10,2013-06-22 03:30:00,
2013-06-21 23:45:00,58.6,58.0,30.14,SW,219,0.0,0.0,97,0.00,,,0.00,weatherlink.com 1.10,2013-06-22 03:45:00,